Time;durP1;ratioP1;P1;durP2;ratioP2;P2;SDS_P1;SDS_P2;PMS_P1;PMS_P2;Temp;Humidity;BMP_temperature;BMP_pressure;BME280_temperature;BME280_humidity;BME280_pressure;Samples;Min_cycle;Max_cycle;Signal;HPM_P1;HPM_P2
2022/10/16 00:00:09;;;;;;;2.77;1.83;;;16.40;77.70;;;18.72;56.42;100872.50;5034865;28;20199;-55
2022/10/16 00:02:37;;;;;;;3.97;2.20;;;16.30;77.60;;;18.71;56.58;100868.19;5042174;28;20245;-56
2022/10/16 00:05:05;;;;;;;5.00;2.43;;;16.30;77.60;;;18.70;56.28;100871.09;5034651;28;20202;-53
2022/10/16 00:07:32;;;;;;;3.33;1.47;;;16.30;77.60;;;18.70;56.32;100871.09;5032156;28;20612;-53
2022/10/16 00:09:59;;;;;;;4.17;1.93;;;16.30;77.70;;;18.68;56.43;100876.66;5014855;28;20202;-53
2022/10/16 00:12:28;;;;;;;3.47;2.40;;;16.20;77.60;;;18.66;56.41;100886.72;5015019;28;20748;-54
2022/10/16 00:14:55;;;;;;;2.63;1.73;;;16.20;77.60;;;18.60;56.38;100884.94;5015733;28;20215;-54
2022/10/16 00:17:23;;;;;;;2.33;2.00;;;16.20;77.60;;;18.60;56.66;100887.63;5031441;28;20195;-54
2022/10/16 00:19:50;;;;;;;4.20;2.10;;;16.20;77.70;;;18.56;56.47;100874.97;5034416;28;20198;-55
2022/10/16 00:22:36;;;;;;;1.87;1.70;;;16.20;77.80;;;18.52;56.63;100881.78;5034675;28;20276;-54
2022/10/16 00:25:04;;;;;;;1.90;1.70;;;16.10;77.70;;;18.54;56.57;100885.81;5031003;28;20567;-55
2022/10/16 00:27:33;;;;;;;3.03;1.77;;;16.10;77.80;;;18.53;56.55;100894.88;5014652;28;20192;-55
2022/10/16 00:30:00;;;;;;;3.70;2.43;;;16.10;77.80;;;18.48;56.74;100894.72;5021201;28;20253;-57
2022/10/16 00:32:28;;;;;;;5.30;2.10;;;16.10;77.90;;;18.45;56.79;100900.47;5032937;28;20249;-55
2022/10/16 00:34:55;;;;;;;2.20;1.97;;;16.10;78.00;;;18.44;56.79;100904.19;5033746;28;20248;-53
2022/10/16 00:37:23;;;;;;;3.47;2.10;;;16.10;78.10;;;18.43;56.94;100897.22;5034825;28;20195;-52
2022/10/16 00:39:50;;;;;;;4.23;1.60;;;16.00;78.10;;;18.42;56.96;100900.94;5034301;28;20548;-55
2022/10/16 00:42:18;;;;;;;3.40;2.20;;;16.00;78.20;;;18.36;57.01;100901.78;5032353;28;20582;-56
2022/10/16 00:44:52;;;;;;;4.80;1.90;;;15.90;78.10;;;18.35;57.08;100904.69;5034341;28;20253;-54
2022/10/16 00:47:26;;;;;;;2.23;1.80;;;16.00;78.30;;;18.35;57.09;100910.03;5017250;28;20249;-56
2022/10/16 00:50:02;;;;;;;3.67;1.97;;;15.90;78.30;;;18.32;56.88;100905.94;5033952;28;20248;-56
2022/10/16 00:52:30;;;;;;;3.17;2.30;;;15.90;78.30;;;18.33;57.10;100912.91;5033163;28;20217;-57
2022/10/16 00:54:58;;;;;;;3.77;2.27;;;15.90;78.40;;;18.30;57.01;100913.34;5033380;28;20210;-57
2022/10/16 00:57:26;;;;;;;3.20;1.73;;;15.80;78.30;;;18.27;57.18;100911.94;5033382;28;20217;-54
2022/10/16 00:59:55;;;;;;;1.73;1.63;;;15.80;78.40;;;18.25;57.02;100911.34;5031406;28;20697;-54
2022/10/16 01:02:22;;;;;;;3.77;2.03;;;15.80;78.40;;;18.21;57.20;100911.97;5026360;28;20219;-55
2022/10/16 01:04:53;;;;;;;2.20;1.97;;;15.80;78.40;;;18.20;57.14;100907.72;5012352;28;20192;-56
2022/10/16 01:07:38;;;;;;;3.07;2.00;;;15.80;78.50;;;18.13;57.17;100912.28;5019227;28;20191;-55
2022/10/16 01:10:23;;;;;;;2.30;2.10;;;15.70;78.50;;;18.11;57.27;100909.03;5033255;28;20248;-55
2022/10/16 01:12:57;;;;;;;3.73;2.10;;;15.70;78.60;;;18.08;57.27;100909.47;5033417;28;20575;-56
2022/10/16 01:15:33;;;;;;;2.80;1.90;;;15.70;78.70;;;18.05;57.31;100909.91;5033425;28;20210;-55
2022/10/16 01:18:13;;;;;;;3.83;1.90;;;15.60;78.70;;;18.03;57.32;100906.63;5029838;28;20218;-56
2022/10/16 01:20:50;;;;;;;2.33;2.13;;;15.60;78.80;;;17.98;57.28;100903.81;5033232;28;20198;-54
2022/10/16 01:23:41;;;;;;;4.60;1.90;;;15.60;78.80;;;17.92;57.63;100899.38;5033040;28;20218;-55
2022/10/16 01:26:30;;;;;;;3.20;2.07;;;15.50;78.80;;;17.86;57.94;100911.69;5033131;28;20199;-56
2022/10/16 01:29:08;;;;;;;2.73;1.93;;;15.50;79.20;;;17.82;57.94;100909.69;5032952;28;20198;-56
2022/10/16 01:31:40;;;;;;;3.80;1.50;;;15.50;79.10;;;17.82;57.68;100909.69;5032057;28;20195;-56
2022/10/16 01:34:15;;;;;;;3.13;2.03;;;15.40;79.80;;;17.77;57.92;100907.69;5033807;28;20222;-57
2022/10/16 01:36:48;;;;;;;4.07;1.80;;;15.40;79.20;;;17.72;58.02;100914.69;5031135;28;20240;-57
2022/10/16 01:39:22;;;;;;;2.60;1.87;;;15.40;79.30;;;17.71;58.08;100907.75;5032279;28;20194;-56
2022/10/16 01:42:00;;;;;;;2.60;2.30;;;15.30;79.40;;;17.69;58.18;100912.44;5031386;28;20239;-54
2022/10/16 01:44:34;;;;;;;1.90;1.80;;;15.30;79.50;;;17.66;58.37;100915.56;5033320;28;20210;-55
2022/10/16 01:47:03;;;;;;;3.50;1.90;;;15.30;79.70;;;17.66;58.50;100910.22;5032753;28;20194;-54
2022/10/16 01:49:37;;;;;;;4.43;1.70;;;15.30;79.80;;;17.63;58.59;100915.97;5032363;28;20285;-56
2022/10/16 01:52:11;;;;;;;5.60;2.23;;;15.30;80.00;;;17.62;58.69;100914.34;5028594;28;20549;-56
2022/10/16 01:54:43;;;;;;;5.63;1.60;;;15.20;80.00;;;17.57;58.73;100918.47;5012415;28;20195;-55
2022/10/16 01:57:15;;;;;;;4.37;1.73;;;15.20;80.20;;;17.56;58.90;100910.72;5012558;28;20241;-55
2022/10/16 01:59:50;;;;;;;2.87;2.10;;;15.20;80.30;;;17.56;58.87;100914.19;5012422;28;20191;-55
2022/10/16 02:02:22;;;;;;;4.00;2.00;;;15.20;80.40;;;17.55;58.71;100915.22;5019427;28;20324;-55
2022/10/16 02:04:59;;;;;;;4.30;2.60;;;15.10;80.40;;;17.53;58.91;100906.63;5011596;28;20331;-54
2022/10/16 02:07:27;;;;;;;2.97;2.10;;;15.10;80.50;;;17.52;58.95;100899.66;5019490;28;20186;-54
2022/10/16 02:09:55;;;;;;;3.17;2.13;;;15.10;80.50;;;17.53;58.92;100893.31;5029248;28;20221;-56
2022/10/16 02:12:29;;;;;;;3.83;2.20;;;15.10;81.40;;;17.52;58.69;100909.50;5012083;28;20282;-56
2022/10/16 02:14:58;;;;;;;3.60;2.07;;;15.10;80.70;;;17.52;58.93;100912.16;5012388;28;20210;-54
2022/10/16 02:17:27;;;;;;;3.80;2.17;;;15.10;80.70;;;17.49;59.18;100910.75;5012727;28;20254;-55
2022/10/16 02:19:57;;;;;;;5.67;2.03;;;15.10;80.80;;;17.48;59.22;100916.25;5014164;28;20195;-53
2022/10/16 02:22:32;;;;;;;4.10;1.97;;;15.10;80.80;;;17.44;59.04;100925.72;5015996;28;20211;-56
2022/10/16 02:25:08;;;;;;;3.50;2.10;;;15.10;80.90;;;17.42;59.08;100936.56;5015658;28;20199;-54
2022/10/16 02:27:45;;;;;;;4.90;1.90;;;15.00;80.80;;;17.43;59.31;100932.06;5017604;28;20191;-56
2022/10/16 02:30:23;;;;;;;5.40;2.03;;;15.00;80.80;;;17.44;59.05;100923.88;5016947;28;20241;-54
2022/10/16 02:32:52;;;;;;;5.10;2.47;;;15.00;80.90;;;17.45;59.07;100920.16;5016290;28;20218;-55
2022/10/16 02:35:22;;;;;;;3.47;2.13;;;15.00;81.00;;;17.45;59.06;100914.03;5020731;28;20221;-54
2022/10/16 02:37:52;;;;;;;4.87;2.27;;;15.00;81.00;;;17.44;59.24;100912.41;5036227;28;20202;-55
2022/10/16 02:40:20;;;;;;;2.67;1.77;;;15.00;81.00;;;17.43;59.22;100914.25;5036114;28;20747;-54
2022/10/16 02:42:53;;;;;;;4.20;2.00;;;15.00;81.10;;;17.41;59.31;100913.66;5036084;28;20305;-55
2022/10/16 02:45:25;;;;;;;2.50;2.20;;;15.00;81.10;;;17.41;59.39;100900.34;5034167;28;20218;-56
2022/10/16 02:47:52;;;;;;;3.83;2.23;;;15.00;81.10;;;17.42;59.27;100909.94;5036007;28;20203;-57
2022/10/16 02:50:19;;;;;;;4.63;2.13;;;15.00;81.20;;;17.41;59.52;100910.97;5036200;28;20191;-55
2022/10/16 02:52:47;;;;;;;2.27;1.93;;;14.90;81.20;;;17.39;59.35;100907.72;5035078;28;20713;-56
2022/10/16 02:55:14;;;;;;;3.37;2.27;;;14.90;81.30;;;17.41;59.37;100907.50;5035687;28;20221;-56
2022/10/16 02:57:42;;;;;;;2.17;1.97;;;14.90;81.30;;;17.41;59.43;100910.97;5036010;28;20267;-53
2022/10/16 03:00:14;;;;;;;4.17;2.33;;;14.90;81.40;;;17.39;59.44;100921.03;5035952;28;20582;-53
2022/10/16 03:02:43;;;;;;;3.57;2.37;;;14.90;81.40;;;17.38;59.71;100919.38;5029989;28;20223;-54
2022/10/16 03:05:11;;;;;;;3.10;2.27;;;14.90;81.60;;;17.35;59.60;100914.47;5016195;28;20191;-53
2022/10/16 03:07:38;;;;;;;5.73;2.30;;;14.90;81.50;;;17.36;59.49;100915.31;5023176;28;20210;-53
2022/10/16 03:10:07;;;;;;;3.97;2.17;;;14.90;81.50;;;17.37;59.50;100917.78;5035047;28;20233;-56
2022/10/16 03:12:34;;;;;;;3.40;2.30;;;14.90;81.60;;;17.40;59.42;100917.31;5034758;28;20211;-54
2022/10/16 03:15:03;;;;;;;4.00;2.20;;;14.90;81.60;;;17.40;59.48;100922.66;5035718;28;20674;-54
2022/10/16 03:17:32;;;;;;;3.30;2.10;;;14.90;81.70;;;17.40;59.61;100917.31;5035698;28;20734;-56
2022/10/16 03:20:00;;;;;;;4.57;3.13;;;14.90;81.70;;;17.41;59.42;100913.66;5032163;28;20190;-56
2022/10/16 03:22:28;;;;;;;2.50;1.97;;;14.90;81.80;;;17.40;59.60;100917.31;5021952;28;20210;-54
2022/10/16 03:24:55;;;;;;;3.13;2.17;;;14.90;81.80;;;17.40;59.50;100917.31;5035524;28;20191;-54
2022/10/16 03:27:22;;;;;;;2.87;2.17;;;14.90;81.80;;;17.38;59.71;100919.38;5035588;28;20205;-53
2022/10/16 03:29:50;;;;;;;2.73;2.20;;;14.90;81.90;;;17.37;59.73;100917.78;5035868;28;20648;-53
2022/10/16 03:32:18;;;;;;;2.70;2.50;;;14.90;81.90;;;17.37;59.78;100928.41;5034613;28;20241;-54
2022/10/16 03:34:45;;;;;;;3.30;2.27;;;14.80;81.90;;;17.37;59.62;100938.25;5035077;28;20231;-53
2022/10/16 03:37:14;;;;;;;5.40;2.73;;;14.90;82.10;;;17.38;59.86;100929.22;5034673;28;20214;-53
2022/10/16 03:39:41;;;;;;;2.40;2.10;;;14.80;82.20;;;17.37;59.87;100927.59;5032275;28;20201;-56
2022/10/16 03:42:08;;;;;;;2.73;1.90;;;14.90;82.30;;;17.35;59.98;100930.44;5038550;28;20228;-57
2022/10/16 03:44:36;;;;;;;3.00;2.70;;;14.80;82.20;;;17.32;60.16;100922.91;5035766;28;20241;-56
2022/10/16 03:47:03;;;;;;;6.57;3.17;;;14.80;82.40;;;17.30;60.22;100921.50;5035091;28;20340;-57
2022/10/16 03:49:30;;;;;;;4.20;2.77;;;14.80;82.50;;;17.30;60.45;100922.31;5034714;28;20197;-57
2022/10/16 03:51:58;;;;;;;3.53;2.93;;;14.80;82.60;;;17.30;60.48;100924.97;5034286;28;20252;-56
2022/10/16 03:54:26;;;;;;;6.00;2.80;;;14.80;82.70;;;17.32;60.46;100930.91;5034185;28;20675;-56
2022/10/16 03:56:54;;;;;;;5.00;3.30;;;14.80;82.80;;;17.31;60.56;100929.25;5017464;28;20211;-55
2022/10/16 03:59:21;;;;;;;4.70;3.60;;;14.80;83.00;;;17.32;60.83;100930.06;5014752;28;20623;-54
2022/10/16 04:01:48;;;;;;;4.77;3.27;;;14.80;83.10;;;17.29;60.74;100931.31;5018509;28;20206;-56
2022/10/16 04:04:15;;;;;;;6.10;3.43;;;14.80;83.10;;;17.32;60.79;100936.22;5034363;28;20194;-56
2022/10/16 04:06:43;;;;;;;5.57;3.70;;;14.80;83.30;;;17.33;60.99;100937.03;5034871;28;20651;-53
2022/10/16 04:09:10;;;;;;;7.73;3.93;;;14.80;83.30;;;17.34;61.08;100944.81;5034737;28;20190;-54
2022/10/16 04:11:39;;;;;;;9.87;4.43;;;14.80;83.50;;;17.33;60.97;100951.16;5033728;28;20195;-53
2022/10/16 04:14:06;;;;;;;6.13;4.53;;;14.80;83.70;;;17.34;61.25;100950.13;5021558;28;20280;-54
2022/10/16 04:16:33;;;;;;;4.73;3.53;;;14.80;83.80;;;17.32;61.46;100957.50;5014652;28;20219;-53
2022/10/16 04:19:01;;;;;;;7.03;3.90;;;14.90;84.10;;;17.32;61.31;100962.84;5014234;28;20688;-53
2022/10/16 04:21:28;;;;;;;6.37;3.80;;;14.90;84.30;;;17.32;61.37;100965.50;5014973;28;20203;-54
2022/10/16 04:23:55;;;;;;;5.50;4.30;;;14.90;84.30;;;17.33;61.58;100964.44;5015202;28;20374;-54
2022/10/16 04:26:23;;;;;;;5.97;4.40;;;14.90;84.40;;;17.32;61.46;100962.84;5016069;28;20199;-53
2022/10/16 04:28:51;;;;;;;8.70;4.80;;;14.90;84.60;;;17.33;61.55;100953.00;5021183;28;20206;-54
2022/10/16 04:31:19;;;;;;;6.10;4.50;;;14.90;84.50;;;17.34;61.73;100951.97;5032785;28;20198;-53
2022/10/16 04:33:46;;;;;;;6.27;4.90;;;14.90;84.70;;;17.34;61.62;100950.13;5020827;28;20575;-54
2022/10/16 04:36:14;;;;;;;7.67;4.90;;;14.90;84.70;;;17.33;61.85;100948.47;5027412;28;20613;-54
2022/10/16 04:38:41;;;;;;;7.10;5.23;;;14.90;84.80;;;17.31;61.79;100953.19;5035781;28;20209;-54
2022/10/16 04:41:08;;;;;;;10.13;5.53;;;14.80;84.80;;;17.33;62.00;100953.00;5034406;28;20216;-54
2022/10/16 04:43:36;;;;;;;5.47;4.93;;;14.80;84.70;;;17.32;62.12;100960.19;5027084;28;20261;-54
2022/10/16 04:46:04;;;;;;;9.97;5.43;;;14.90;85.00;;;17.30;62.06;100959.56;5014795;28;20644;-53
2022/10/16 04:48:32;;;;;;;7.40;5.43;;;14.80;85.10;;;17.31;62.14;100965.69;5015712;28;20226;-54
2022/10/16 04:50:59;;;;;;;8.13;5.83;;;14.80;85.30;;;17.32;62.05;100962.84;5024458;28;20203;-53
2022/10/16 04:53:27;;;;;;;8.33;5.80;;;14.90;85.40;;;17.35;62.13;100957.06;5034362;28;20630;-54
2022/10/16 04:55:54;;;;;;;7.73;5.20;;;14.80;85.40;;;17.36;62.21;100955.22;5037742;28;20250;-53
2022/10/16 04:58:22;;;;;;;8.37;5.67;;;14.90;85.60;;;17.38;62.13;100967.28;5042972;28;20200;-53
2022/10/16 05:00:49;;;;;;;6.47;5.87;;;14.90;85.60;;;17.39;62.43;100958.28;5042866;28;20207;-54
2022/10/16 05:03:18;;;;;;;8.23;5.93;;;14.90;85.70;;;17.41;62.38;100972.19;5043921;28;20237;-53
2022/10/16 05:05:47;;;;;;;9.90;7.10;;;14.90;85.70;;;17.39;62.51;100968.13;5032367;28;20267;-55
2022/10/16 05:08:15;;;;;;;7.60;6.00;;;14.90;86.00;;;17.39;62.47;100968.94;5016738;28;20195;-56
2022/10/16 05:10:44;;;;;;;8.03;6.33;;;14.90;86.10;;;17.40;62.35;100975.88;5013687;28;20199;-53
2022/10/16 05:13:12;;;;;;;7.13;6.10;;;14.90;86.10;;;17.40;62.83;100981.19;5014407;28;20672;-55
2022/10/16 05:15:39;;;;;;;9.10;6.67;;;14.90;86.20;;;17.39;63.02;100987.56;5014868;28;20202;-54
2022/10/16 05:18:08;;;;;;;11.07;6.73;;;14.90;86.40;;;17.39;63.15;100982.25;5013872;28;20631;-56
2022/10/16 05:20:37;;;;;;;7.87;7.03;;;14.90;86.50;;;17.43;63.14;100987.94;5013526;28;20257;-57
2022/10/16 05:23:04;;;;;;;8.93;7.20;;;14.90;86.60;;;17.41;63.20;100990.81;5015042;28;20250;-54
2022/10/16 05:25:31;;;;;;;9.43;7.63;;;14.90;86.70;;;17.41;63.23;100995.31;5023567;28;20213;-55
2022/10/16 05:27:59;;;;;;;12.60;7.20;;;15.00;86.90;;;17.41;63.28;100988.16;5033730;28;20186;-56
2022/10/16 05:30:26;;;;;;;12.50;8.17;;;15.00;86.90;;;17.42;63.35;100979.13;5032994;28;20195;-56
2022/10/16 05:32:53;;;;;;;7.83;6.67;;;15.00;87.00;;;17.45;63.70;100986.69;5021745;28;20265;-56
2022/10/16 05:35:21;;;;;;;9.63;7.30;;;15.00;87.00;;;17.44;63.53;100998.38;5018330;28;20186;-54
2022/10/16 05:37:50;;;;;;;8.10;7.30;;;15.10;87.20;;;17.49;63.54;101005.72;5033418;28;20214;-56
2022/10/16 05:40:17;;;;;;;9.37;8.47;;;15.10;87.30;;;17.49;63.61;101006.56;5032492;28;20321;-57
2022/10/16 05:42:45;;;;;;;10.40;7.60;;;15.10;87.30;;;17.49;63.70;100998.56;5013930;28;20222;-55
2022/10/16 05:45:12;;;;;;;7.50;6.57;;;15.10;87.30;;;17.59;63.45;101004.25;5013417;28;20194;-55
2022/10/16 05:47:40;;;;;;;9.47;7.57;;;15.20;87.20;;;17.66;63.28;101000.75;5012514;28;20575;-56
2022/10/16 05:50:08;;;;;;;10.03;7.80;;;15.20;87.10;;;17.69;63.41;101005.63;5017989;28;20198;-56
2022/10/16 05:52:35;;;;;;;8.93;7.07;;;15.20;87.10;;;17.76;63.18;101001.91;5032440;28;20222;-54
2022/10/16 05:55:05;;;;;;;9.10;7.70;;;15.20;87.00;;;17.76;63.08;101011.75;5033239;28;20256;-55
2022/10/16 05:57:33;;;;;;;7.60;6.77;;;15.30;87.10;;;17.79;63.11;101017.47;5037331;28;20292;-55
2022/10/16 06:00:00;;;;;;;8.90;6.53;;;15.30;87.10;;;17.81;62.98;101015.38;5036431;28;20194;-54
2022/10/16 06:02:28;;;;;;;8.87;7.47;;;15.30;86.90;;;17.84;62.94;101016.81;5036612;28;20222;-54
2022/10/16 06:04:55;;;;;;;10.00;8.30;;;15.30;86.90;;;17.85;62.77;101027.25;5032247;28;20195;-54
2022/10/16 06:07:23;;;;;;;12.57;8.27;;;15.40;86.90;;;17.85;62.98;101021.13;5023196;28;20544;-55
2022/10/16 06:09:52;;;;;;;8.80;6.37;;;15.40;86.80;;;17.83;62.93;101029.31;5037122;28;20202;-54
2022/10/16 06:12:21;;;;;;;9.00;7.00;;;15.40;86.80;;;17.83;62.84;101026.63;5036603;28;20581;-56
2022/10/16 06:14:48;;;;;;;8.07;7.27;;;15.40;86.70;;;17.85;62.85;101031.78;5036900;28;20708;-56
2022/10/16 06:17:16;;;;;;;10.87;8.33;;;15.40;86.70;;;17.85;62.89;101029.09;5019668;28;20215;-55
2022/10/16 06:19:43;;;;;;;7.23;6.53;;;15.40;86.70;;;17.84;62.79;101036.28;5016935;28;20279;-55
2022/10/16 06:22:11;;;;;;;8.33;6.83;;;15.40;86.60;;;17.85;62.80;101037.09;5028066;28;20218;-55
2022/10/16 06:24:38;;;;;;;7.17;6.40;;;15.40;86.70;;;17.87;62.89;101035.84;5037025;28;20221;-54
2022/10/16 06:27:06;;;;;;;7.40;6.63;;;15.40;87.50;;;17.89;63.00;101043.63;5036971;28;20198;-55
2022/10/16 06:29:35;;;;;;;8.97;7.13;;;15.40;86.70;;;17.89;62.81;101043.63;5037223;28;20230;-54
2022/10/16 06:32:02;;;;;;;8.20;6.93;;;15.40;86.70;;;17.90;62.79;101042.59;5035690;28;20199;-54
2022/10/16 06:34:30;;;;;;;11.33;6.57;;;15.40;86.60;;;17.90;62.86;101047.94;5018041;28;20211;-56
2022/10/16 06:36:57;;;;;;;8.93;7.40;;;15.40;86.60;;;17.92;62.74;101059.19;5034567;28;20206;-56
2022/10/16 06:39:24;;;;;;;12.93;7.07;;;15.40;86.50;;;17.94;62.78;101049.13;5027726;28;20194;-54
2022/10/16 06:41:51;;;;;;;6.93;6.23;;;15.40;86.50;;;17.95;62.57;101056.06;5036215;28;20186;-56
2022/10/16 06:44:19;;;;;;;8.70;6.60;;;15.40;86.40;;;17.96;62.70;101065.69;5036228;28;20217;-53
2022/10/16 06:46:48;;;;;;;6.97;6.27;;;15.40;86.40;;;17.99;62.49;101071.44;5034796;28;20597;-55
2022/10/16 06:49:21;;;;;;;7.70;6.80;;;15.50;86.50;;;18.01;62.51;101076.53;5036178;28;20195;-56
2022/10/16 06:51:48;;;;;;;7.97;6.63;;;15.50;86.50;;;18.01;62.57;101080.03;5033752;28;20194;-57
2022/10/16 06:54:17;;;;;;;10.20;6.13;;;15.50;86.40;;;18.03;62.50;101079.78;5034459;28;20186;-56
2022/10/16 06:56:45;;;;;;;10.67;6.63;;;15.50;86.40;;;18.07;62.37;101089.81;5035730;28;20218;-56
2022/10/16 06:59:12;;;;;;;6.83;6.10;;;15.60;86.40;;;18.13;62.49;101093.47;5035598;28;20195;-56
2022/10/16 07:01:39;;;;;;;6.90;6.20;;;15.60;86.40;;;18.15;62.17;101091.41;5034915;28;20321;-56
2022/10/16 07:04:08;;;;;;;9.83;6.87;;;15.60;86.20;;;18.12;62.13;101092.66;5035997;28;20717;-56
2022/10/16 07:06:35;;;;;;;6.87;6.10;;;15.60;86.00;;;18.14;62.22;101095.09;5035346;28;20198;-57
2022/10/16 07:09:07;;;;;;;8.77;6.60;;;15.60;86.00;;;18.12;62.03;101099.81;5017551;28;20664;-55
2022/10/16 07:11:34;;;;;;;7.77;5.73;;;15.60;85.90;;;18.14;62.26;101111.06;5016782;28;20665;-53
2022/10/16 07:14:02;;;;;;;9.07;6.10;;;15.70;85.90;;;18.17;62.25;101113.31;5014843;28;20215;-53
2022/10/16 07:16:32;;;;;;;7.33;6.57;;;15.80;85.90;;;18.20;62.25;101120.88;5016120;28;20194;-52
2022/10/16 07:19:02;;;;;;;6.67;6.07;;;15.70;85.80;;;18.25;62.13;101129.88;5033910;28;20691;-56
2022/10/16 07:21:35;;;;;;;9.13;5.67;;;15.80;85.70;;;18.30;61.98;101120.41;5035138;28;20218;-52
2022/10/16 07:24:06;;;;;;;7.87;5.63;;;15.80;85.70;;;18.34;62.13;101127.75;5035674;28;20301;-56
2022/10/16 07:26:36;;;;;;;6.37;5.77;;;15.90;85.70;;;18.42;61.80;101127.50;5034017;28;20194;-56
2022/10/16 07:29:04;;;;;;;6.20;5.60;;;15.90;85.50;;;18.55;61.61;101130.09;5028648;28;20214;-55
2022/10/16 07:31:31;;;;;;;5.87;4.80;;;16.00;85.50;;;18.62;61.19;101132.69;5032308;28;20643;-54
2022/10/16 07:34:00;;;;;;;5.37;4.73;;;16.00;85.10;;;18.72;61.33;101141.88;5015439;28;20219;-54
2022/10/16 07:36:27;;;;;;;5.13;4.70;;;16.20;85.10;;;18.87;60.63;101147.66;5029651;28;20575;-55
2022/10/16 07:38:56;;;;;;;4.93;4.50;;;16.30;84.90;;;18.93;60.54;101141.47;5034781;28;20237;-55
2022/10/16 07:41:27;;;;;;;5.83;5.07;;;16.30;84.40;;;18.97;60.48;101151.72;5035219;28;20194;-54
2022/10/16 07:43:59;;;;;;;5.90;5.10;;;16.40;84.10;;;18.98;60.08;101153.31;5029141;28;20215;-57
2022/10/16 07:46:27;;;;;;;6.30;4.83;;;16.40;83.80;;;18.97;60.29;101154.38;5013819;28;20187;-56
2022/10/16 07:48:55;;;;;;;5.33;4.83;;;16.50;83.60;;;18.97;59.95;101157.84;5014714;28;20192;-55
2022/10/16 07:51:24;;;;;;;6.23;4.90;;;16.50;83.40;;;18.94;60.44;101156.44;5028292;28;20195;-57
2022/10/16 07:53:52;;;;;;;6.37;4.73;;;16.50;83.30;;;18.93;60.17;101170.81;5034801;28;20287;-57
2022/10/16 07:56:22;;;;;;;5.37;4.83;;;16.60;83.40;;;18.92;60.22;101174.50;5034860;28;20213;-57
2022/10/16 07:58:50;;;;;;;4.67;4.23;;;16.60;83.30;;;18.96;60.35;101174.91;5034602;28;20621;-56
2022/10/16 08:01:19;;;;;;;4.07;3.67;;;16.60;83.20;;;18.98;60.18;101172.00;5022274;28;20218;-56
2022/10/16 08:03:49;;;;;;;5.67;4.27;;;16.60;83.30;;;19.12;60.16;101173.53;5034785;28;20625;-54
2022/10/16 08:06:19;;;;;;;5.53;3.90;;;16.60;83.30;;;19.26;59.63;101180.34;5035419;28;20190;-54
2022/10/16 08:08:53;;;;;;;4.40;4.00;;;16.70;83.30;;;19.21;59.40;101182.88;5034485;28;20672;-55
2022/10/16 08:11:22;;;;;;;4.80;3.73;;;16.70;82.80;;;19.33;59.41;101181.09;5034588;28;20194;-56
2022/10/16 08:13:50;;;;;;;4.63;3.17;;;16.80;82.90;;;19.50;58.95;101184.88;5034561;28;20309;-55
2022/10/16 08:16:17;;;;;;;3.47;3.07;;;16.90;82.60;;;19.69;58.86;101186.50;5030675;28;20195;-55
2022/10/16 08:18:45;;;;;;;6.60;3.40;;;17.00;82.70;;;19.89;57.76;101191.63;5014739;28;20215;-56
2022/10/16 08:21:16;;;;;;;4.60;3.10;;;17.10;82.20;;;19.97;57.72;101189.44;5013244;28;20636;-54
2022/10/16 08:23:47;;;;;;;5.57;3.30;;;17.20;81.80;;;20.06;57.11;101203.34;5014571;28;20289;-55
2022/10/16 08:26:26;;;;;;;6.17;2.97;;;17.30;81.80;;;20.16;56.84;101207.09;5014503;28;20205;-54
2022/10/16 08:28:54;;;;;;;6.47;2.80;;;17.40;80.60;;;20.29;56.92;101208.81;5013949;28;20191;-53
2022/10/16 08:31:22;;;;;;;3.93;3.07;;;17.50;80.60;;;20.44;56.62;101208.41;5013443;28;20274;-55
2022/10/16 08:33:51;;;;;;;3.23;2.80;;;17.60;80.20;;;20.63;56.08;101209.97;5015132;28;20672;-54
2022/10/16 08:36:18;;;;;;;3.27;2.67;;;17.70;80.10;;;20.74;55.29;101211.84;5021861;28;20220;-56
2022/10/16 08:38:50;;;;;;;2.67;2.47;;;17.80;79.00;;;20.79;55.24;101220.00;5030185;28;20292;-56
2022/10/16 08:42:06;;;;;;;6.30;2.70;;;17.90;78.50;;;20.81;54.34;101204.53;5033332;28;20648;-54
2022/10/16 08:45:15;;;;;;;4.90;2.87;;;18.00;77.50;;;21.15;53.60;101214.53;5020381;28;20617;-55
2022/10/16 08:47:53;;;;;;;3.57;2.70;;;18.20;77.10;;;21.85;53.63;101225.19;5028376;28;20206;-54
2022/10/16 08:50:27;;;;;;;3.97;2.10;;;18.50;78.50;;;22.24;51.89;101224.38;5027125;28;20256;-58
2022/10/16 08:52:56;;;;;;;3.17;2.13;;;18.80;76.30;;;22.21;50.85;101225.69;5033309;28;20215;-55
2022/10/16 08:55:37;;;;;;;6.07;2.30;;;19.10;73.90;;;22.26;50.20;101238.38;5016205;28;20195;-55
2022/10/16 08:58:13;;;;;;;5.63;2.10;;;19.30;73.30;;;22.34;50.58;101237.19;5018380;28;20622;-56
2022/10/16 09:00:46;;;;;;;3.60;2.00;;;19.40;72.70;;;22.35;49.92;101241.47;5033717;28;20262;-55
2022/10/16 09:03:32;;;;;;;2.63;2.00;;;19.50;71.90;;;22.44;50.07;101240.84;5032336;28;20673;-57
2022/10/16 09:06:32;;;;;;;4.33;2.10;;;19.50;71.90;;;22.62;49.65;101248.75;5028329;28;20668;-55
2022/10/16 09:09:28;;;;;;;3.60;1.90;;;19.60;71.60;;;22.71;49.02;101258.03;5032972;28;20199;-56
2022/10/16 09:12:05;;;;;;;3.47;1.93;;;19.70;71.20;;;22.79;49.04;101254.97;5013005;28;20203;-56
2022/10/16 09:14:56;;;;;;;5.77;2.47;;;19.80;71.30;;;23.13;48.46;101261.16;5013964;28;20700;-56
2022/10/16 09:17:39;;;;;;;2.97;1.80;;;19.90;70.10;;;23.69;46.92;101264.72;5013830;28;20226;-56
2022/10/16 09:20:27;;;;;;;2.73;1.93;;;20.00;69.90;;;24.23;45.93;101261.94;5013545;28;20253;-55
2022/10/16 09:23:12;;;;;;;2.70;1.90;;;20.30;69.40;;;24.61;44.25;101263.69;5014699;28;20262;-57
2022/10/16 09:25:47;;;;;;;3.23;1.80;;;20.50;67.10;;;25.20;44.41;101266.44;5013467;28;20191;-56
2022/10/16 09:28:16;;;;;;;3.17;1.77;;;21.00;68.40;;;26.01;43.78;101267.72;5014522;28;20379;-56
2022/10/16 09:30:46;;;;;;;1.73;1.50;;;21.40;68.00;;;26.48;41.93;101273.84;5012476;28;20678;-57
2022/10/16 09:33:15;;;;;;;2.27;1.60;;;21.90;65.70;;;26.30;40.54;101271.66;5012733;28;20219;-57
2022/10/16 09:35:46;;;;;;;3.67;1.70;;;22.20;62.90;;;25.87;40.88;101271.97;5012868;28;20191;-57
2022/10/16 09:38:29;;;;;;;3.37;1.47;;;22.30;60.70;;;25.23;40.70;101273.97;5024276;28;20241;-54
2022/10/16 09:40:58;;;;;;;1.97;1.50;;;22.10;59.70;;;24.73;42.54;101283.22;5012638;28;20191;-55
2022/10/16 09:43:39;;;;;;;2.10;1.20;;;22.00;59.90;;;24.53;42.80;101276.81;5012973;28;20262;-57
2022/10/16 09:46:22;;;;;;;2.80;1.83;;;21.80;60.80;;;24.38;42.71;101290.09;5013829;28;20556;-55
2022/10/16 09:48:53;;;;;;;3.53;1.20;;;21.60;60.80;;;24.36;43.55;101270.72;5013377;28;20257;-54
2022/10/16 09:51:26;;;;;;;4.00;1.60;;;21.50;61.70;;;24.33;43.42;101280.09;5026106;28;20198;-55
2022/10/16 09:54:00;;;;;;;4.87;1.70;;;21.40;61.40;;;24.44;43.50;101281.03;5033253;28;20218;-56
2022/10/16 09:56:32;;;;;;;2.97;1.53;;;21.40;62.00;;;24.55;42.13;101274.69;5030815;28;20210;-56
2022/10/16 09:59:08;;;;;;;1.97;1.33;;;21.30;61.10;;;24.85;42.25;101280.41;5032818;28;20289;-56
2022/10/16 10:01:40;;;;;;;4.23;1.70;;;21.50;61.50;;;25.17;41.92;101289.31;5030002;28;20611;-63
2022/10/16 10:04:09;;;;;;;3.17;1.97;;;21.50;61.40;;;25.31;41.43;101295.88;5014693;28;20214;-63
2022/10/16 10:06:44;;;;;;;3.53;1.73;;;21.50;61.40;;;25.29;41.16;101303.41;5021639;28;20206;-63
2022/10/16 10:09:19;;;;;;;2.17;1.40;;;21.60;61.00;;;25.23;41.02;101304.44;5032952;28;20190;-63
2022/10/16 10:11:54;;;;;;;3.40;1.70;;;21.60;60.80;;;25.38;41.62;101301.88;5025244;28;20670;-64
2022/10/16 10:14:30;;;;;;;2.87;1.73;;;21.70;61.00;;;25.59;40.38;101307.44;5012799;28;20178;-64
2022/10/16 10:17:16;;;;;;;2.67;1.40;;;21.70;60.40;;;25.62;40.54;101302.34;5012996;28;20207;-63
2022/10/16 10:19:53;;;;;;;3.30;1.70;;;21.70;60.40;;;25.60;41.17;101306.38;5011664;28;20537;-63
2022/10/16 10:22:26;;;;;;;2.73;1.87;;;21.70;60.50;;;25.51;40.50;101319.50;5014741;28;20272;-63
2022/10/16 10:25:00;;;;;;;4.50;1.73;;;21.70;59.80;;;25.31;40.77;101312.06;5032127;28;20232;-64
2022/10/16 10:27:44;;;;;;;5.50;2.00;;;21.70;59.40;;;25.02;40.62;101328.78;5032220;28;20276;-64